Time;durP1;ratioP1;P1;durP2;ratioP2;P2;SDS_P1;SDS_P2;PMS_P1;PMS_P2;Temp;Humidity;BMP_temperature;BMP_pressure;BME280_temperature;BME280_humidity;BME280_pressure;Samples;Min_cycle;Max_cycle;Signal;HPM_P1;HPM_P2
2022/12/08 00:00:11;;;;;;;;;;;;;;;4.61;67.69;100464.97;4954891;29;20307;-87
2022/12/08 00:02:58;;;;;;;;;;;;;;;4.84;68.21;100466.91;4979267;28;20411;-86
2022/12/08 00:12:11;;;;;;;;;;;;;;;4.83;69.45;100451.03;4995424;28;19918;-87
2022/12/08 00:14:55;;;;;;;;;;;;;;;4.70;66.63;100449.81;4990180;28;19918;-87
2022/12/08 00:17:40;;;;;;;;;;;;;;;4.50;68.02;100463.44;4976450;28;19926;-87
2022/12/08 00:20:24;;;;;;;;;;;;;;;4.39;67.46;100454.63;4975594;28;20287;-87
2022/12/08 00:23:09;;;;;;;;;;;;;;;4.39;66.65;100472.66;4973025;28;20298;-87
2022/12/08 00:25:53;;;;;;;;;;;;;;;4.14;68.21;100458.28;4966302;28;19923;-87
2022/12/08 00:28:38;;;;;;;;;;;;;;;4.06;67.89;100453.50;4983079;28;19923;-87
2022/12/08 00:31:22;;;;;;;;;;;;;;;4.02;68.63;100451.63;4985007;28;19918;-87
2022/12/08 00:34:07;;;;;;;;;;;;;;;3.87;68.85;100449.84;4979849;28;19918;-86
2022/12/08 00:36:51;;;;;;;;;;;;;;;3.76;69.51;100453.66;4970970;28;20307;-86
2022/12/08 00:39:35;;;;;;;;;;;;;;;3.80;69.60;100441.28;4981467;28;19919;-86
2022/12/08 00:42:20;;;;;;;;;;;;;;;3.82;67.99;100452.56;4965387;29;19918;-87
2022/12/08 00:45:04;;;;;;;;;;;;;;;3.61;68.88;100451.03;4986024;28;19918;-86
2022/12/08 00:47:49;;;;;;;;;;;;;;;3.53;69.05;100447.03;4976511;28;19918;-86
2022/12/08 00:50:33;;;;;;;;;;;;;;;3.29;69.65;100438.81;4971928;28;19919;-86
2022/12/08 00:53:18;;;;;;;;;;;;;;;3.72;70.17;100442.66;4984477;28;19922;-86
2022/12/08 00:56:02;;;;;;;;;;;;;;;3.99;68.44;100447.63;4980819;28;19922;-86
2022/12/08 00:58:47;;;;;;;;;;;;;;;3.54;69.13;100439.78;4985813;28;19918;-86
2022/12/08 01:01:31;;;;;;;;;;;;;;;3.29;69.73;100433.44;4990416;28;19918;-86
2022/12/08 01:04:17;;;;;;;;;;;;;;;3.69;70.07;100447.78;4987317;28;19918;-86
2022/12/08 01:07:01;;;;;;;;;;;;;;;4.00;69.66;100441.16;4990532;28;19917;-87
2022/12/08 01:09:46;;;;;;;;;;;;;;;4.10;68.17;100443.00;4989866;28;20379;-86
2022/12/08 01:12:30;;;;;;;;;;;;;;;3.91;67.99;100442.03;4977169;28;19918;-86
2022/12/08 01:15:16;;;;;;;;;;;;;;;3.78;67.06;100438.88;4973861;28;19926;-86
2022/12/08 01:18:00;;;;;;;;;;;;;;;2.74;67.39;100438.94;4983919;28;19922;-87
2022/12/08 01:20:45;;;;;;;;;;;;;;;2.22;70.44;100433.81;4984992;28;20399;-87
2022/12/08 01:23:29;;;;;;;;;;;;;;;2.45;71.32;100439.44;4999348;28;19918;-87
2022/12/08 01:26:15;;;;;;;;;;;;;;;3.00;71.33;100438.59;4985408;28;19918;-86
2022/12/08 01:29:00;;;;;;;;;;;;;;;3.18;67.07;100431.84;4990406;28;19918;-86
2022/12/08 01:31:44;;;;;;;;;;;;;;;3.00;67.87;100435.91;4987145;28;19918;-86
2022/12/08 01:34:29;;;;;;;;;;;;;;;3.15;68.51;100437.75;4980542;28;19922;-85
2022/12/08 01:37:13;;;;;;;;;;;;;;;2.98;69.49;100434.59;4988526;28;19922;-86
2022/12/08 01:39:58;;;;;;;;;;;;;;;3.17;69.21;100430.22;4982223;28;19918;-83
2022/12/08 01:42:42;;;;;;;;;;;;;;;3.17;67.23;100424.06;4979694;28;19918;-83
2022/12/08 01:45:28;;;;;;;;;;;;;;;2.64;69.17;100415.59;4981837;28;20298;-83
2022/12/08 01:48:24;;;;;;;;;;;;;;;2.89;67.42;100415.53;4968067;28;20299;-83
2022/12/08 01:51:09;;;;;;;;;;;;;;;2.77;68.19;100417.69;4982120;28;19918;-85
2022/12/08 01:53:53;;;;;;;;;;;;;;;3.14;69.22;100416.56;4989880;28;19922;-87
2022/12/08 01:56:53;;;;;;;;;;;;;;;3.62;68.49;100426.56;4986538;28;19926;-86
2022/12/08 01:59:40;;;;;;;;;;;;;;;3.63;64.99;100422.00;4967449;28;19919;-85
2022/12/08 02:02:28;;;;;;;;;;;;;;;3.67;65.74;100417.66;4954341;29;19919;-85
2022/12/08 02:05:13;;;;;;;;;;;;;;;3.26;65.45;100412.47;4982867;28;19926;-87
2022/12/08 02:07:59;;;;;;;;;;;;;;;3.12;67.59;100410.63;4985528;28;19919;-85
2022/12/08 02:10:43;;;;;;;;;;;;;;;2.77;69.36;100412.34;4975101;28;19918;-85
2022/12/08 02:13:27;;;;;;;;;;;;;;;3.61;68.55;100402.63;4979118;28;19918;-86
2022/12/08 02:16:21;;;;;;;;;;;;;;;3.67;66.21;100412.28;4985236;28;19922;-85
2022/12/08 02:19:33;;;;;;;;;;;;;;;3.11;66.54;100403.66;4974771;28;19918;-85
2022/12/08 02:22:36;;;;;;;;;;;;;;;3.87;67.80;100407.59;4970948;28;19918;-85
2022/12/08 02:25:20;;;;;;;;;;;;;;;4.05;67.89;100414.25;4983762;28;19918;-85
2022/12/08 02:28:14;;;;;;;;;;;;;;;3.80;66.55;100406.31;4983920;28;19918;-85
2022/12/08 02:31:17;;;;;;;;;;;;;;;3.78;65.72;100403.91;4968817;28;19922;-85
2022/12/08 02:34:02;;;;;;;;;;;;;;;3.42;66.77;100400.59;4983731;28;19918;-86
2022/12/08 02:36:56;;;;;;;;;;;;;;;3.41;67.44;100398.16;4963028;28;20403;-86
2022/12/08 02:39:40;;;;;;;;;;;;;;;3.41;66.67;100393.59;4968452;28;20287;-85
2022/12/08 02:42:29;;;;;;;;;;;;;;;3.67;66.11;100398.84;4963814;29;20308;-85
2022/12/08 02:45:18;;;;;;;;;;;;;;;3.70;65.73;100390.25;4977976;28;19922;-85
2022/12/08 02:48:03;;;;;;;;;;;;;;;3.65;65.69;100379.53;4975678;28;19918;-85
2022/12/08 02:50:47;;;;;;;;;;;;;;;3.31;67.10;100377.53;4973244;28;19918;-85
2022/12/08 02:53:33;;;;;;;;;;;;;;;3.36;67.09;100371.31;4968578;28;19919;-84
2022/12/08 02:56:27;;;;;;;;;;;;;;;3.27;67.48;100376.47;4967779;28;19926;-84
2022/12/08 02:59:31;;;;;;;;;;;;;;;3.04;68.26;100377.09;4989167;28;19918;-85
2022/12/08 03:02:40;;;;;;;;;;;;;;;3.45;69.24;100373.16;4985405;28;19918;-86
2022/12/08 03:05:31;;;;;;;;;;;;;;;3.61;68.28;100373.88;4990887;28;19918;-87
2022/12/08 03:08:21;;;;;;;;;;;;;;;3.33;67.88;100375.38;4974284;28;19918;-87
2022/12/08 03:11:09;;;;;;;;;;;;;;;3.53;69.55;100363.72;5005569;28;19981;-87
2022/12/08 03:13:56;;;;;;;;;;;;;;;3.37;68.93;100360.31;5004627;28;20418;-86
2022/12/08 03:16:43;;;;;;;;;;;;;;;3.20;68.54;100354.44;4969471;28;19922;-85
2022/12/08 03:19:29;;;;;;;;;;;;;;;3.38;69.80;100359.22;4954129;29;19918;-86
2022/12/08 03:22:16;;;;;;;;;;;;;;;3.68;66.73;100365.50;4968115;29;19918;-87
2022/12/08 03:25:01;;;;;;;;;;;;;;;3.47;66.70;100356.75;5000831;28;19919;-87
2022/12/08 03:27:45;;;;;;;;;;;;;;;3.43;66.51;100358.41;4973152;28;20387;-88
2022/12/08 03:30:31;;;;;;;;;;;;;;;3.30;67.83;100364.38;4982515;28;19918;-87
2022/12/08 03:33:21;;;;;;;;;;;;;;;3.35;67.36;100369.72;4989153;28;19918;-86
2022/12/08 03:36:07;;;;;;;;;;;;;;;3.82;65.46;100377.25;4983707;28;19918;-88
2022/12/08 03:38:53;;;;;;;;;;;;;;;3.75;65.29;100371.41;4980668;28;19918;-86
2022/12/08 03:41:38;;;;;;;;;;;;;;;3.92;64.91;100373.69;4966366;28;19918;-87
2022/12/08 03:44:23;;;;;;;;;;;;;;;3.90;65.22;100375.88;4979859;28;20549;-92
2022/12/08 03:47:07;;;;;;;;;;;;;;;3.90;65.28;100368.63;4979816;28;19918;-83
2022/12/08 03:49:51;;;;;;;;;;;;;;;3.80;66.07;100368.69;4967174;28;20000;-86
2022/12/08 03:52:36;;;;;;;;;;;;;;;3.78;66.41;100370.81;4970494;28;19918;-87
2022/12/08 03:55:20;;;;;;;;;;;;;;;3.25;66.58;100351.75;4974414;28;19918;-82
2022/12/08 03:58:05;;;;;;;;;;;;;;;3.49;66.62;100361.88;4987233;28;19922;-81
2022/12/08 04:00:50;;;;;;;;;;;;;;;2.92;68.27;100358.59;4977666;28;19918;-81
2022/12/08 04:03:34;;;;;;;;;;;;;;;2.77;68.43;100353.28;4998562;28;19918;-81
2022/12/08 04:06:19;;;;;;;;;;;;;;;2.83;68.88;100344.13;4988785;28;19922;-82
2022/12/08 04:09:03;;;;;;;;;;;;;;;2.98;69.60;100352.16;4991359;28;19918;-81
2022/12/08 04:11:48;;;;;;;;;;;;;;;2.81;68.87;100348.97;4999922;28;19918;-81
2022/12/08 04:14:32;;;;;;;;;;;;;;;2.57;69.70;100351.44;4986468;28;19918;-82
2022/12/08 04:17:17;;;;;;;;;;;;;;;2.55;70.18;100340.16;4976540;28;19922;-81
2022/12/08 04:20:02;;;;;;;;;;;;;;;2.71;70.00;100340.13;4998281;28;19906;-81
2022/12/08 04:22:46;;;;;;;;;;;;;;;3.10;70.44;100341.06;4995176;28;19918;-82
2022/12/08 04:25:31;;;;;;;;;;;;;;;3.01;68.48;100343.53;4989094;28;20382;-82
2022/12/08 04:28:16;;;;;;;;;;;;;;;3.42;65.85;100337.97;4974465;28;19918;-81
2022/12/08 04:31:01;;;;;;;;;;;;;;;2.82;68.20;100336.34;4989212;28;19914;-81
2022/12/08 04:33:45;;;;;;;;;;;;;;;2.55;68.56;100328.63;4988856;28;19918;-81
2022/12/08 04:36:30;;;;;;;;;;;;;;;2.78;69.44;100333.41;4989196;28;19906;-81
2022/12/08 04:39:14;;;;;;;;;;;;;;;3.00;68.52;100325.78;4992213;28;19919;-81
2022/12/08 04:41:58;;;;;;;;;;;;;;;3.07;68.16;100324.69;5006272;28;19922;-81
2022/12/08 04:44:46;;;;;;;;;;;;;;;2.49;67.77;100322.44;4996334;28;19918;-81
2022/12/08 04:47:13;;;;;;;;;;;;;;;1.90;69.29;100319.56;5022789;23;19930;-80
2022/12/08 04:49:57;;;;;;;;;;;;;;;1.85;70.50;100327.59;4991394;28;19922;-80
2022/12/08 04:52:42;;;;;;;;;;;;;;;2.18;69.22;100330.81;4984526;28;19918;-80
2022/12/08 04:55:26;;;;;;;;;;;;;;;2.62;67.31;100326.47;4974488;28;19919;-80
2022/12/08 04:58:15;;;;;;;;;;;;;;;2.22;68.46;100327.34;4981526;28;19926;-80
2022/12/08 05:01:00;;;;;;;;;;;;;;;2.62;68.90;100336.41;4991355;28;19919;-80
2022/12/08 05:03:44;;;;;;;;;;;;;;;2.59;67.85;100338.53;5005765;28;20302;-80
2022/12/08 05:06:29;;;;;;;;;;;;;;;2.46;68.27;100338.28;4993177;28;19918;-79
2022/12/08 05:09:13;;;;;;;;;;;;;;;2.61;68.13;100342.84;4979825;28;19922;-80
2022/12/08 05:11:58;;;;;;;;;;;;;;;2.58;68.02;100347.69;4975425;28;19918;-80
2022/12/08 05:14:42;;;;;;;;;;;;;;;2.80;67.58;100338.47;4998098;28;19918;-80
2022/12/08 05:17:26;;;;;;;;;;;;;;;2.46;67.92;100333.75;5007264;28;19922;-80
2022/12/08 05:20:11;;;;;;;;;;;;;;;2.89;68.30;100339.56;4972632;28;19922;-81
2022/12/08 05:22:55;;;;;;;;;;;;;;;2.58;66.76;100336.94;4983693;28;19918;-80
2022/12/08 05:25:40;;;;;;;;;;;;;;;3.09;68.74;100330.63;4968865;28;19918;-80
2022/12/08 05:28:24;;;;;;;;;;;;;;;3.37;69.48;100338.00;4969396;28;19919;-80
2022/12/08 05:31:10;;;;;;;;;;;;;;;2.53;66.66;100336.16;4983455;28;20299;-80
2022/12/08 05:33:54;;;;;;;;;;;;;;;2.56;67.67;100328.34;4964088;28;19918;-80
2022/12/08 05:36:38;;;;;;;;;;;;;;;2.43;67.88;100323.56;4971816;28;19944;-80
2022/12/08 05:39:23;;;;;;;;;;;;;;;2.52;67.30;100321.94;4979985;28;20298;-82
2022/12/08 05:42:07;;;;;;;;;;;;;;;2.67;66.58;100323.78;4986112;28;19918;-80
2022/12/08 05:44:52;;;;;;;;;;;;;;;2.03;67.63;100326.28;4993715;28;19921;-82
2022/12/08 05:47:36;;;;;;;;;;;;;;;2.45;67.40;100328.63;4976672;28;20398;-82
2022/12/08 05:50:21;;;;;;;;;;;;;;;2.23;69.13;100323.59;4978547;28;19922;-79
2022/12/08 05:53:05;;;;;;;;;;;;;;;2.35;69.10;100324.09;4991481;28;19918;-82
2022/12/08 05:55:50;;;;;;;;;;;;;;;2.84;68.31;100323.47;4974767;28;19918;-82
2022/12/08 05:58:34;;;;;;;;;;;;;;;3.11;68.89;100329.25;4995853;28;19921;-82
2022/12/08 06:01:23;;;;;;;;;;;;;;;2.82;67.97;100322.91;4986304;28;19930;-81
2022/12/08 06:04:07;;;;;;;;;;;;;;;2.63;68.26;100327.28;5012475;28;19902;-82
2022/12/08 06:06:52;;;;;;;;;;;;;;;2.77;68.84;100328.31;5013847;28;19909;-81
2022/12/08 06:09:37;;;;;;;;;;;;;;;3.03;67.24;100332.50;5027994;28;19925;-82
2022/12/08 06:12:21;;;;;;;;;;;;;;;3.07;66.46;100338.94;5024509;28;19914;-82
2022/12/08 06:15:06;;;;;;;;;;;;;;;2.85;67.14;100325.03;4988084;28;19918;-82
2022/12/08 06:17:50;;;;;;;;;;;;;;;2.86;67.32;100326.66;5021220;23;19910;-80
2022/12/08 06:20:35;;;;;;;;;;;;;;;2.65;67.28;100327.78;5032110;28;19930;-80
2022/12/08 06:23:20;;;;;;;;;;;;;;;2.32;69.46;100321.16;5043556;28;19921;-81
2022/12/08 06:26:05;;;;;;;;;;;;;;;2.36;70.21;100331.06;5042400;28;19909;-80
2022/12/08 06:28:51;;;;;;;;;;;;;;;2.56;70.30;100330.22;5030406;28;19909;-80
2022/12/08 06:31:35;;;;;;;;;;;;;;;2.90;69.07;100330.41;5017905;28;19910;-80
2022/12/08 06:34:20;;;;;;;;;;;;;;;2.99;68.23;100336.84;5014781;28;19921;-80
2022/12/08 06:37:04;;;;;;;;;;;;;;;2.82;67.97;100330.97;5000307;28;19910;-80
2022/12/08 06:39:49;;;;;;;;;;;;;;;2.92;67.68;100333.63;5006464;28;19946;-81
2022/12/08 06:42:43;;;;;;;;;;;;;;;3.09;66.60;100336.78;5008131;28;19910;-80
2022/12/08 06:45:28;;;;;;;;;;;;;;;3.02;65.96;100328.22;5004461;28;19914;-80
2022/12/08 06:48:12;;;;;;;;;;;;;;;2.99;67.07;100326.09;5016375;28;19910;-80
2022/12/08 06:51:04;;;;;;;;;;;;;;;3.38;66.92;100335.03;5014693;28;19910;-80
2022/12/08 06:53:51;;;;;;;;;;;;;;;3.33;66.92;100343.13;5025498;28;20149;-80
2022/12/08 06:56:36;;;;;;;;;;;;;;;2.98;66.95;100354.03;4999996;28;19934;-80
2022/12/08 06:59:20;;;;;;;;;;;;;;;3.05;67.65;100340.31;5000037;28;19922;-80
2022/12/08 07:02:04;;;;;;;;;;;;;;;3.32;67.35;100336.13;5031303;28;19914;-80
2022/12/08 07:04:50;;;;;;;;;;;;;;;3.41;67.25;100345.22;5029773;28;19910;-79
2022/12/08 07:07:35;;;;;;;;;;;;;;;3.36;67.36;100334.50;5028331;28;19914;-80
2022/12/08 07:10:19;;;;;;;;;;;;;;;2.64;68.33;100328.88;5033556;28;19909;-80
2022/12/08 07:13:04;;;;;;;;;;;;;;;2.21;69.01;100328.41;5014920;28;19913;-80
2022/12/08 07:15:49;;;;;;;;;;;;;;;2.43;68.57;100323.56;5020514;28;19909;-80
2022/12/08 07:18:34;;;;;;;;;;;;;;;2.54;68.18;100330.50;5021167;28;19914;-79
2022/12/08 07:21:19;;;;;;;;;;;;;;;2.42;68.22;100326.50;5008203;28;19910;-80
2022/12/08 07:24:04;;;;;;;;;;;;;;;2.23;69.91;100320.91;5003158;28;19910;-80
2022/12/08 07:26:49;;;;;;;;;;;;;;;2.81;67.23;100329.34;4999098;28;19918;-80
2022/12/08 07:29:34;;;;;;;;;;;;;;;3.05;66.66;100335.72;5002718;28;19911;-80
2022/12/08 07:32:19;;;;;;;;;;;;;;;2.75;67.38;100328.56;4999502;28;19914;-80
2022/12/08 07:35:04;;;;;;;;;;;;;;;3.12;66.98;100328.19;4999475;28;19914;-80
2022/12/08 07:37:49;;;;;;;;;;;;;;;2.45;68.10;100332.13;5003073;28;19914;-80
2022/12/08 07:40:34;;;;;;;;;;;;;;;2.44;68.31;100330.50;4999532;28;19929;-80
2022/12/08 07:43:19;;;;;;;;;;;;;;;2.48;69.10;100326.22;5003375;28;19913;-80
2022/12/08 07:46:04;;;;;;;;;;;;;;;2.63;69.35;100324.59;5007716;28;19910;-80
2022/12/08 07:48:51;;;;;;;;;;;;;;;2.79;67.90;100329.66;5007505;28;19913;-80
2022/12/08 07:51:36;;;;;;;;;;;;;;;2.69;69.03;100324.31;5010669;28;19913;-80
2022/12/08 07:54:21;;;;;;;;;;;;;;;2.73;68.90;100324.56;5018353;28;19914;-80
2022/12/08 07:57:07;;;;;;;;;;;;;;;2.86;68.49;100327.47;5018429;28;19910;-80
2022/12/08 07:59:52;;;;;;;;;;;;;;;2.93;69.39;100324.50;5024913;28;19940;-80
2022/12/08 08:02:36;;;;;;;;;;;;;;;3.13;68.89;100321.72;5022880;28;19910;-80
2022/12/08 08:05:21;;;;;;;;;;;;;;;3.04;68.89;100331.44;5020441;28;19910;-81
2022/12/08 08:08:06;;;;;;;;;;;;;;;3.49;69.40;100324.25;5022683;28;19914;-80
2022/12/08 08:10:51;;;;;;;;;;;;;;;3.10;69.70;100316.13;5013314;28;19909;-80
2022/12/08 08:13:36;;;;;;;;;;;;;;;3.23;70.73;100335.13;5024533;28;19910;-80
2022/12/08 08:16:21;;;;;;;;;;;;;;;3.14;71.15;100330.59;5002946;28;19910;-80
2022/12/08 08:19:07;;;;;;;;;;;;;;;3.60;69.72;100331.16;5012896;28;19914;-80
2022/12/08 08:21:56;;;;;;;;;;;;;;;3.72;69.43;100326.22;5012118;28;20133;-79
2022/12/08 08:24:43;;;;;;;;;;;;;;;4.03;68.68;100321.44;5015901;28;19914;-80
2022/12/08 08:27:28;;;;;;;;;;;;;;;3.99;68.87;100323.09;5017218;28;19914;-80
2022/12/08 08:30:15;;;;;;;;;;;;;;;4.07;68.15;100322.47;5031244;28;19933;-80
2022/12/08 08:33:00;;;;;;;;;;;;;;;3.98;69.41;100322.28;5032021;28;19918;-80
2022/12/08 08:35:45;;;;;;;;;;;;;;;4.19;69.48;100315.66;5011901;28;19913;-80
2022/12/08 08:38:59;;;;;;;;;;;;;;;4.22;68.52;100317.75;5035146;28;19933;-81
2022/12/08 08:41:44;;;;;;;;;;;;;;;4.29;68.34;100320.94;5030388;28;19930;-79
2022/12/08 08:44:29;;;;;;;;;;;;;;;4.56;68.76;100314.22;5020795;28;19909;-79
2022/12/08 08:47:15;;;;;;;;;;;;;;;4.79;68.04;100318.00;5022033;28;19930;-79
2022/12/08 08:49:59;;;;;;;;;;;;;;;4.97;66.85;100318.09;5034908;28;19925;-78
2022/12/08 08:52:44;;;;;;;;;;;;;;;5.16;66.44;100324.31;5015346;28;19909;-78
2022/12/08 08:55:29;;;;;;;;;;;;;;;5.23;66.94;100320.47;5032461;28;19918;-78
2022/12/08 08:58:14;;;;;;;;;;;;;;;5.06;67.71;100327.13;5020334;28;20390;-79
2022/12/08 09:00:59;;;;;;;;;;;;;;;5.09;67.81;100334.63;5004196;28;19926;-79
2022/12/08 09:03:44;;;;;;;;;;;;;;;5.06;69.27;100337.91;4999242;28;19918;-79
2022/12/08 09:06:29;;;;;;;;;;;;;;;5.36;68.91;100335.91;5010996;28;19917;-80
2022/12/08 09:09:15;;;;;;;;;;;;;;;5.57;69.70;100331.84;5009101;28;19910;-80
2022/12/08 09:12:00;;;;;;;;;;;;;;;5.74;68.49;100331.34;5011356;28;20145;-80
2022/12/08 09:14:45;;;;;;;;;;;;;;;5.88;68.47;100337.66;5017923;28;19926;-79
2022/12/08 09:17:30;;;;;;;;;;;;;;;6.27;65.88;100339.97;5019166;28;19910;-79
2022/12/08 09:20:15;;;;;;;;;;;;;;;6.49;65.80;100345.56;5018271;28;19913;-78
2022/12/08 09:23:00;;;;;;;;;;;;;;;6.64;64.60;100350.69;5019078;28;19921;-79
2022/12/08 09:25:45;;;;;;;;;;;;;;;6.26;66.57;100346.47;5018925;28;19921;-80
2022/12/08 09:28:30;;;;;;;;;;;;;;;6.42;66.63;100343.22;5014565;28;19918;-80
2022/12/08 09:31:16;;;;;;;;;;;;;;;6.27;66.80;100331.88;5005783;28;19917;-80
2022/12/08 09:34:00;;;;;;;;;;;;;;;6.37;66.59;100337.09;5016022;28;19918;-80
2022/12/08 09:36:45;;;;;;;;;;;;;;;6.58;66.06;100343.75;5019286;28;19917;-80
2022/12/08 09:39:29;;;;;;;;;;;;;;;6.63;65.72;100340.97;5009935;28;19918;-80
2022/12/08 09:42:22;;;;;;;;;;;;;;;6.58;65.52;100334.84;5003737;28;19925;-81
2022/12/08 09:45:10;;;;;;;;;;;;;;;6.37;66.95;100332.50;4999674;28;19922;-81
2022/12/08 09:48:04;;;;;;;;;;;;;;;6.42;66.79;100337.03;5021824;28;19917;-79
2022/12/08 09:50:52;;;;;;;;;;;;;;;6.66;64.56;100336.84;5018504;28;20394;-79
2022/12/08 09:53:41;;;;;;;;;;;;;;;6.72;65.00;100333.75;5006235;28;20325;-79
2022/12/08 09:56:28;;;;;;;;;;;;;;;6.70;64.63;100321.66;4988338;28;19918;-80
2022/12/08 09:59:25;;;;;;;;;;;;;;;6.65;64.85;100332.56;4986520;28;20386;-80
2022/12/08 10:02:22;;;;;;;;;;;;;;;6.63;65.27;100327.47;4985009;28;19922;-80
2022/12/08 10:05:11;;;;;;;;;;;;;;;6.83;65.07;100324.38;5002113;28;19918;-80
2022/12/08 10:08:10;;;;;;;;;;;;;;;6.89;65.52;100319.69;4995520;28;19918;-81
2022/12/08 10:10:57;;;;;;;;;;;;;;;6.94;65.91;100318.78;4992057;28;19918;-80
2022/12/08 10:13:48;;;;;;;;;;;;;;;7.13;66.65;100319.47;5293374;23;19928;-79
2022/12/08 10:19:26;;;;;;;;;;;;;;;8.94;64.79;100313.44;4954573;29;19926;-80
2022/12/08 10:22:23;;;;;;;;;;;;;;;8.76;62.71;100319.94;4960139;28;19923;-86
2022/12/08 10:25:19;;;;;;;;;;;;;;;8.31;63.21;100311.91;4943748;29;19926;-86
2022/12/08 10:28:08;;;;;;;;;;;;;;;8.01;65.17;100308.00;4975771;28;19918;-85
2022/12/08 10:30:54;;;;;;;;;;;;;;;7.80;64.55;100301.47;4968296;28;19926;-85
2022/12/08 10:34:13;;;;;;;;;;;;;;;7.49;65.94;100301.38;4972922;28;19926;-85
2022/12/08 10:37:08;;;;;;;;;;;;;;;7.34;67.13;100298.19;4975472;28;19926;-85
2022/12/08 10:40:11;;;;;;;;;;;;;;;7.40;67.92;100292.38;5023109;23;19926;-84
2022/12/08 10:42:59;;;;;;;;;;;;;;;7.35;67.37;100284.38;5019087;28;19930;-85
2022/12/08 10:45:44;;;;;;;;;;;;;;;7.28;68.04;100283.97;5120301;23;20625;-79
2022/12/08 10:48:30;;;;;;;;;;;;;;;7.27;68.76;100276.97;4968440;28;19927;-80
2022/12/08 10:51:21;;;;;;;;;;;;;;;7.27;68.33;100277.78;4969114;28;19918;-79
2022/12/08 10:54:25;;;;;;;;;;;;;;;7.26;68.81;100281.56;4968282;29;19923;-79
2022/12/08 10:57:18;;;;;;;;;;;;;;;7.53;69.86;100274.50;4965290;28;19937;-79
2022/12/08 11:00:04;;;;;;;;;;;;;;;8.11;69.41;100279.88;4984863;28;19922;-80
2022/12/08 11:02:57;;;;;;;;;;;;;;;8.65;68.98;100272.53;4975528;28;19918;-79
2022/12/08 11:05:41;;;;;;;;;;;;;;;9.39;68.53;100271.44;4977215;28;19922;-79
2022/12/08 11:08:27;;;;;;;;;;;;;;;9.99;66.69;100276.06;4990388;28;19926;-79
2022/12/08 11:11:12;;;;;;;;;;;;;;;10.22;63.41;100272.03;4983163;28;19918;-80
2022/12/08 11:13:57;;;;;;;;;;;;;;;10.49;61.82;100280.94;4976175;28;20539;-81
2022/12/08 11:16:41;;;;;;;;;;;;;;;10.52;61.88;100274.81;4973074;28;19915;-82
2022/12/08 11:19:27;;;;;;;;;;;;;;;10.68;60.84;100267.72;4968939;28;19922;-82
2022/12/08 11:22:23;;;;;;;;;;;;;;;10.33;60.57;100268.97;4972272;28;19923;-81
2022/12/08 11:25:09;;;;;;;;;;;;;;;10.36;61.67;100271.88;4965352;28;19918;-81
2022/12/08 11:27:58;;;;;;;;;;;;;;;10.65;61.82;100273.84;4968201;28;20308;-81
2022/12/08 11:30:46;;;;;;;;;;;;;;;10.77;61.17;100267.72;4968377;28;20323;-81
2022/12/08 11:33:32;;;;;;;;;;;;;;;10.67;60.67;100260.69;4976140;28;19926;-81
2022/12/08 11:36:19;;;;;;;;;;;;;;;10.50;61.75;100260.78;4978609;28;19918;-81
2022/12/08 11:39:04;;;;;;;;;;;;;;;10.50;61.33;100267.00;4975170;28;19922;-81
2022/12/08 11:41:52;;;;;;;;;;;;;;;10.72;63.06;100260.50;4978335;28;19922;-82
2022/12/08 11:44:52;;;;;;;;;;;;;;;11.44;63.28;100262.16;4978597;28;19918;-82
2022/12/08 11:47:42;;;;;;;;;;;;;;;12.08;62.48;100275.44;4964932;28;19918;-82
2022/12/08 11:50:46;;;;;;;;;;;;;;;12.37;61.24;100265.19;4992111;28;19918;-82
2022/12/08 11:53:43;;;;;;;;;;;;;;;12.36;60.57;100260.06;4980541;28;19934;-82
2022/12/08 11:56:36;;;;;;;;;;;;;;;12.46;60.37;100259.59;4984686;28;19914;-82
2022/12/08 11:59:36;;;;;;;;;;;;;;;12.15;59.91;100249.22;4982088;28;19918;-82
2022/12/08 12:02:26;;;;;;;;;;;;;;;11.67;59.59;100244.38;4981407;28;19922;-83
2022/12/08 12:05:30;;;;;;;;;;;;;;;11.02;60.41;100240.34;4988487;28;19926;-82
2022/12/08 12:08:33;;;;;;;;;;;;;;;10.88;61.05;100236.28;4995091;28;19922;-81
2022/12/08 12:12:11;;;;;;;;;;;;;;;10.92;62.43;100229.06;4981145;28;19918;-82
2022/12/08 12:14:42;;;;;;;;;;;;;;;11.05;63.55;100226.09;4982639;28;19919;-82
2022/12/08 12:17:36;;;;;;;;;;;;;;;10.64;60.94;100218.66;4980283;28;19918;-82
2022/12/08 12:20:21;;;;;;;;;;;;;;;10.28;62.94;100213.69;4978682;28;19922;-81
2022/12/08 12:23:12;;;;;;;;;;;;;;;10.24;63.38;100209.22;4983497;28;19918;-80
2022/12/08 12:25:58;;;;;;;;;;;;;;;10.17;63.50;100212.44;4980227;28;19922;-82
2022/12/08 12:28:59;;;;;;;;;;;;;;;10.49;64.36;100216.47;4977858;28;19918;-82
2022/12/08 12:31:49;;;;;;;;;;;;;;;10.49;62.63;100211.03;4981631;28;19919;-82
2022/12/08 12:34:47;;;;;;;;;;;;;;;10.67;63.58;100209.03;4966069;28;19914;-82
2022/12/08 12:37:37;;;;;;;;;;;;;;;10.88;62.56;100201.72;4965206;28;19918;-82
2022/12/08 12:40:24;;;;;;;;;;;;;;;10.90;62.95;100209.56;4964470;29;19922;-81
2022/12/08 12:43:08;;;;;;;;;;;;;;;10.87;62.08;100199.34;4980968;28;19914;-81
2022/12/08 12:46:13;;;;;;;;;;;;;;;11.15;63.34;100195.78;4969882;28;19922;-82
2022/12/08 12:49:17;;;;;;;;;;;;;;;11.43;62.75;100200.66;4977389;28;19906;-81
2022/12/08 12:52:03;;;;;;;;;;;;;;;11.46;61.79;100194.56;4974106;28;19918;-83
2022/12/08 12:54:51;;;;;;;;;;;;;;;11.54;61.41;100189.03;4965482;28;19918;-82
2022/12/08 12:57:50;;;;;;;;;;;;;;;11.71;61.50;100196.25;4976764;28;19918;-81
2022/12/08 13:00:34;;;;;;;;;;;;;;;11.68;60.80;100188.78;4966648;28;19926;-82
2022/12/08 13:03:19;;;;;;;;;;;;;;;11.82;61.70;100181.13;4963241;28;19903;-79
2022/12/08 13:06:04;;;;;;;;;;;;;;;11.69;60.77;100175.94;4968265;28;19918;-82
2022/12/08 13:08:50;;;;;;;;;;;;;;;11.70;62.27;100182.97;4988619;28;19914;-81
2022/12/08 13:11:48;;;;;;;;;;;;;;;11.65;61.25;100186.69;4974391;28;19922;-80
2022/12/08 13:14:34;;;;;;;;;;;;;;;11.74;61.43;100192.09;4964541;28;20396;-80
2022/12/08 13:17:25;;;;;;;;;;;;;;;12.17;61.81;100195.16;4972877;28;19919;-81
2022/12/08 13:20:18;;;;;;;;;;;;;;;12.53;60.35;100182.69;4974799;28;19918;-81
2022/12/08 13:23:12;;;;;;;;;;;;;;;12.28;58.15;100179.97;4960988;29;20382;-82
2022/12/08 13:26:15;;;;;;;;;;;;;;;12.25;59.25;100174.38;4964176;28;19918;-82
2022/12/08 13:29:00;;;;;;;;;;;;;;;12.19;59.63;100181.97;4962285;28;19918;-81
2022/12/08 13:31:58;;;;;;;;;;;;;;;12.53;61.87;100171.78;4965595;28;19923;-78
2022/12/08 13:34:47;;;;;;;;;;;;;;;12.94;59.33;100179.72;4975716;28;19926;-81
2022/12/08 13:37:40;;;;;;;;;;;;;;;12.95;58.81;100177.78;4975487;28;20383;-81
2022/12/08 13:40:28;;;;;;;;;;;;;;;13.07;58.69;100170.34;4968483;28;19925;-81
2022/12/08 13:43:29;;;;;;;;;;;;;;;13.14;58.52;100170.59;4972476;28;19918;-82
2022/12/08 13:46:14;;;;;;;;;;;;;;;12.99;57.24;100173.22;4977686;28;19906;-82
2022/12/08 13:48:59;;;;;;;;;;;;;;;12.85;58.52;100171.63;4978870;28;20399;-81
2022/12/08 13:51:51;;;;;;;;;;;;;;;12.81;58.69;100161.75;4957358;29;19919;-82
2022/12/08 13:54:39;;;;;;;;;;;;;;;12.79;58.97;100153.94;4974074;29;19903;-82
2022/12/08 13:57:29;;;;;;;;;;;;;;;12.62;58.54;100162.34;4959723;28;19906;-82
2022/12/08 14:00:15;;;;;;;;;;;;;;;12.67;58.20;100167.56;4959530;29;19926;-81
2022/12/08 14:03:00;;;;;;;;;;;;;;;13.08;59.70;100161.03;4981939;28;19923;-81
2022/12/08 14:05:45;;;;;;;;;;;;;;;13.63;58.74;100165.75;4960751;28;19918;-86
2022/12/08 14:08:32;;;;;;;;;;;;;;;13.81;57.25;100162.69;4956953;28;19918;-80
2022/12/08 14:11:34;;;;;;;;;;;;;;;13.90;55.87;100160.59;4968518;28;19919;-83
2022/12/08 14:14:21;;;;;;;;;;;;;;;13.46;56.20;100155.09;4961241;28;19922;-81
2022/12/08 14:17:11;;;;;;;;;;;;;;;13.08;57.15;100152.03;4974769;28;20319;-82
2022/12/08 14:19:57;;;;;;;;;;;;;;;13.32;57.80;100154.72;4975304;28;19918;-81
2022/12/08 14:22:43;;;;;;;;;;;;;;;13.49;57.42;100162.63;4965462;28;19922;-82
2022/12/08 14:25:28;;;;;;;;;;;;;;;13.53;57.30;100163.50;4972281;28;19930;-82
2022/12/08 14:28:13;;;;;;;;;;;;;;;13.39;55.86;100157.66;4956772;28;19919;-81
2022/12/08 14:30:58;;;;;;;;;;;;;;;12.90;56.43;100167.09;4957194;28;19918;-82
2022/12/08 14:33:42;;;;;;;;;;;;;;;13.20;56.43;100160.22;4956168;29;19918;-81
2022/12/08 14:36:27;;;;;;;;;;;;;;;12.45;57.25;100159.84;4953833;28;19919;-81
2022/12/08 14:39:12;;;;;;;;;;;;;;;12.36;58.59;100170.88;4980618;28;19918;-81